CW2798 Aduanas ES current weather conditions

sailwx.info

Wind from 138

Air temperature 19.4° C
Dewpoint 16.9° C

Last reported at 2014-Nov-23 12:31 UTC.
Time now 2014-Nov-24 22:53 UTC

Location: N 38°48' E 000°11'.
View on Google Maps.

See reports from other nearby stations

  
Tides and Currents Weather Stations Pressure Air Temp Water Temp Dewpoint Dewpoint Depression Visibility Wind Speed Wind Dir Waves Ship Positions
date/time (UTC)wind fromknots sea level pressurealtimeterstation pressurevisibilityair tempwater tempwave heightnotes
2014-Nov-23 12:31 138 19.4
2014-Nov-23 12:01 19.4
2014-Nov-23 11:46 19.4
2014-Nov-23 11:31 008 1 gusting 5 18.9
2014-Nov-23 11:16 020 2 gusting 6 18.9
2014-Nov-23 11:01 299 0 gusting 1 18.3
2014-Nov-23 10:46 333 4 gusting 7 18.3
2014-Nov-23 10:16 345 3 gusting 5 18.3
2014-Nov-23 09:46 340 4 gusting 8 18.3
2014-Nov-23 09:31 355 6 gusting 10 18.3
2014-Nov-23 09:16 343 6 gusting 12 18.3
2014-Nov-23 09:01 335 4 gusting 10 18.3
2014-Nov-23 08:46 214 2 gusting 4 17.8
2014-Nov-23 08:16 320 4 gusting 7 17.8
2014-Nov-23 08:01 337 3 gusting 10 17.8
2014-Nov-23 07:31 248 0 gusting 6 17.2
2014-Nov-23 07:16 251 4 gusting 6 17.2
2014-Nov-23 07:01 332 3 gusting 8 17.8
2014-Nov-23 06:46 338 4 gusting 11 17.8
2014-Nov-23 06:31 318 0 gusting 6 17.2
2014-Nov-23 06:16 017 0 gusting 5 17.2
2014-Nov-23 06:01 352 3 gusting 7 17.2
2014-Nov-23 05:16 318 3 gusting 6 17.2
2014-Nov-23 05:02 341 2 gusting 8 17.2
2014-Nov-23 04:46 324 2 gusting 6 17.2
2014-Nov-23 04:31 346 3 gusting 7 17.8
2014-Nov-23 04:16 327 1 gusting 0 17.2
2014-Nov-23 03:31 343 0 gusting 8 17.2
2014-Nov-23 03:01 345 5 gusting 13 17.8
2014-Nov-23 02:46 339 5 gusting 11 17.8
2014-Nov-23 02:31 003 2 gusting 10 17.8
2014-Nov-23 02:16 317 4 gusting 6 17.8
2014-Nov-23 01:16 342 5 gusting 13 17.8
2014-Nov-23 00:46 244 2 gusting 4 17.2
2014-Nov-23 00:31 337 6 gusting 11 17.8
2014-Nov-23 00:01 325 5 gusting 10 17.8
2014-Nov-22 23:46 340 6 gusting 12 17.8
2014-Nov-22 23:31 344 6 gusting 12 17.8
2014-Nov-22 23:16 353 6 gusting 12 17.8
2014-Nov-22 23:01 337 4 gusting 7 17.8
2014-Nov-22 22:46 336 0 gusting 6 17.8